KCYS/CYS METAR and TAF weather

Enter ICAO airport designator
Station Type Date Time Source
KCYS METAR 2019/04/25 20:53 UTC NOAA

KCYS 252053Z 04009KT 10SM CLR 14/M03 A3019 RMK AO2 SLP186 T01441033 56008


Station Type Date Time Source
KCYS Decoded METAR 2019/04/25 20:53 UTC NOAA

CHEYENNE AIRPORT, WY, United States (KCYS) 41-09N 104-48W 1865M
Apr 25, 2019 - 04:53 PM EDT / 2019.04.25 2053 UTC
Wind: from the NE (040 degrees) at 10 MPH (9 KT):0
Visibility: 10 mile(s):0
Sky conditions: clear
Temperature: 57.9 F (14.4 C)
Dew Point: 26.1 F (-3.3 C)
Relative Humidity: 29%
Pressure (altimeter): 30.19 in. Hg (1022 hPa)
Pressure tendency: 0.02 inches (0.8 hPa) lower than three hours ago
ob: KCYS 252053Z 04009KT 10SM CLR 14/M03 A3019 RMK AO2 SLP186 T01441033 56008
cycle: 21

Station Type Date Time Source
KCYS TAF 2019/04/25 18:36 UTC NOAA

TAF KCYS 251732Z 2518/2618 36011G18KT P6SM SKC
FM260100 14008KT P6SM SKC
FM261200 25007KT P6SM SKC

Example: see airport list